createdAt,value
2022-12-09T00:04:37.646Z,24.83
2022-12-09T00:07:06.703Z,25.80
2022-12-09T00:09:34.025Z,25.73
2022-12-09T00:12:04.043Z,26.47
2022-12-09T00:14:32.259Z,25.13
2022-12-09T00:16:59.670Z,26.40
2022-12-09T00:19:27.232Z,27.40
2022-12-09T00:21:54.534Z,25.73
2022-12-09T00:24:21.897Z,25.80
2022-12-09T00:26:49.182Z,25.93
2022-12-09T00:29:17.059Z,26.63
2022-12-09T00:31:47.428Z,26.13
2022-12-09T00:34:16.222Z,26.27
2022-12-09T00:36:43.572Z,26.43
2022-12-09T00:39:13.353Z,25.40
2022-12-09T00:41:41.449Z,25.23
2022-12-09T00:44:09.204Z,26.67
2022-12-09T00:46:38.392Z,25.73
2022-12-09T00:49:09.764Z,26.87
2022-12-09T00:51:38.168Z,26.57
2022-12-09T00:54:05.642Z,26.07
2022-12-09T00:56:37.786Z,26.53
2022-12-09T00:59:05.443Z,27.23
2022-12-09T01:01:33.073Z,26.83
2022-12-09T01:04:03.587Z,25.93
2022-12-09T01:06:31.110Z,26.23
2022-12-09T01:09:00.002Z,26.13
2022-12-09T01:11:29.100Z,27.17
2022-12-09T01:14:01.336Z,25.83
2022-12-09T01:16:30.347Z,26.87
2022-12-09T01:19:03.097Z,25.50
2022-12-09T01:21:34.263Z,26.23
2022-12-09T01:24:02.297Z,25.30
2022-12-09T01:26:30.003Z,25.63
2022-12-09T01:28:57.858Z,25.20
2022-12-09T01:31:26.085Z,26.93
2022-12-09T01:33:56.897Z,25.00
2022-12-09T01:36:28.435Z,25.50
2022-12-09T01:38:58.384Z,25.47
2022-12-09T01:41:26.208Z,24.97
2022-12-09T01:44:12.579Z,26.80
2022-12-09T01:46:40.626Z,25.43
2022-12-09T01:49:09.976Z,27.27
2022-12-09T01:51:38.090Z,26.30
2022-12-09T01:54:05.732Z,26.60
2022-12-09T01:56:34.418Z,26.73
2022-12-09T01:59:11.134Z,26.43
2022-12-09T02:01:41.174Z,27.87
2022-12-09T02:04:09.262Z,27.17
2022-12-09T02:06:45.255Z,26.30
2022-12-09T02:09:15.293Z,26.30
2022-12-09T02:12:08.323Z,26.40
2022-12-09T02:14:59.614Z,25.90
2022-12-09T02:17:47.197Z,26.40
2022-12-09T02:20:30.065Z,27.13
2022-12-09T02:23:07.524Z,26.73
2022-12-09T02:25:53.347Z,26.03
2022-12-09T02:28:27.715Z,25.80
2022-12-09T02:31:06.799Z,26.60
2022-12-09T02:33:47.460Z,25.57
2022-12-09T02:36:18.847Z,27.20
2022-12-09T02:38:49.496Z,26.43
2022-12-09T02:41:20.246Z,27.50
2022-12-09T02:43:52.047Z,27.03
2022-12-09T02:46:25.075Z,26.03
2022-12-09T02:48:56.504Z,26.30
2022-12-09T02:51:25.208Z,26.27
2022-12-09T02:54:19.055Z,27.93
2022-12-09T02:56:57.225Z,27.40
2022-12-09T02:59:30.894Z,27.13
2022-12-09T03:02:03.390Z,27.77
2022-12-09T03:04:31.651Z,27.23
2022-12-09T03:07:06.564Z,27.50
2022-12-09T03:09:35.779Z,27.60
2022-12-09T03:12:07.101Z,27.13
2022-12-09T03:14:44.660Z,28.07
2022-12-09T03:17:33.545Z,27.53
2022-12-09T03:20:14.067Z,26.60
2022-12-09T03:22:44.001Z,27.77
2022-12-09T03:25:12.943Z,28.17
2022-12-09T03:27:47.221Z,27.37
2022-12-09T03:30:22.453Z,27.50
2022-12-09T03:32:51.938Z,27.07
2022-12-09T03:35:39.604Z,27.50
2022-12-09T03:38:09.207Z,27.33
2022-12-09T03:40:37.002Z,28.13
2022-12-09T03:43:14.607Z,27.60
2022-12-09T03:45:42.694Z,28.17
2022-12-09T03:48:10.945Z,29.23
2022-12-09T03:50:44.451Z,28.03
2022-12-09T03:53:15.459Z,27.87
2022-12-09T03:55:47.739Z,28.23
2022-12-09T03:58:17.989Z,27.97
2022-12-09T04:00:46.243Z,27.30
2022-12-09T04:03:16.116Z,28.23
2022-12-09T04:05:43.650Z,27.37
2022-12-09T04:08:11.807Z,29.10
2022-12-09T04:10:41.116Z,28.80
2022-12-09T04:13:41.255Z,28.97
2022-12-09T04:16:12.407Z,27.80
2022-12-09T04:18:41.529Z,28.77
2022-12-09T04:21:10.621Z,28.93
2022-12-09T04:23:42.538Z,28.80
2022-12-09T04:26:18.101Z,28.10
2022-12-09T04:28:46.033Z,28.70
2022-12-09T04:31:15.371Z,27.90
2022-12-09T04:33:43.434Z,28.03
2022-12-09T04:36:13.058Z,29.10
2022-12-09T04:38:40.869Z,29.07
2022-12-09T04:41:08.791Z,27.73
2022-12-09T04:43:36.427Z,28.87
2022-12-09T04:46:05.614Z,28.10
2022-12-09T04:48:34.237Z,27.87
2022-12-09T04:51:02.104Z,28.60
2022-12-09T04:53:29.841Z,28.90
2022-12-09T04:56:16.105Z,30.47
2022-12-09T04:58:44.925Z,28.70
2022-12-09T05:01:18.176Z,28.03
2022-12-09T05:03:52.535Z,28.97
2022-12-09T05:06:22.751Z,29.60
2022-12-09T05:08:51.369Z,29.43
2022-12-09T05:11:24.978Z,29.43
2022-12-09T05:13:57.244Z,29.53
2022-12-09T05:16:31.755Z,30.77
2022-12-09T05:19:01.581Z,29.07
2022-12-09T05:21:30.093Z,28.73
2022-12-09T05:23:59.640Z,29.47
2022-12-09T05:26:28.908Z,30.73
2022-12-09T05:29:29.945Z,29.60
2022-12-09T05:32:00.399Z,31.23
2022-12-09T05:34:28.393Z,29.07
2022-12-09T05:36:56.166Z,31.03
2022-12-09T05:39:23.950Z,30.47
2022-12-09T05:41:53.371Z,29.33
2022-12-09T05:44:25.156Z,30.20
2022-12-09T05:46:53.686Z,30.20
2022-12-09T05:49:21.270Z,28.83
2022-12-09T05:51:50.855Z,31.17
2022-12-09T05:54:21.592Z,30.17
2022-12-09T05:56:49.283Z,30.73
2022-12-09T05:59:17.690Z,30.23
2022-12-09T06:01:45.780Z,30.57
2022-12-09T06:04:13.805Z,29.93
2022-12-09T06:06:41.747Z,30.67
2022-12-09T06:09:12.300Z,30.57
2022-12-09T06:11:40.386Z,30.43
2022-12-09T06:14:08.936Z,30.03
2022-12-09T06:16:36.986Z,31.33
2022-12-09T06:19:05.495Z,30.07
2022-12-09T06:21:33.540Z,31.67
2022-12-09T06:24:01.285Z,32.75
2022-12-09T06:26:30.063Z,31.80
2022-12-09T06:28:58.391Z,30.80
2022-12-09T06:31:26.124Z,30.93
2022-12-09T06:33:57.159Z,29.73
2022-12-09T06:36:26.260Z,30.57
2022-12-09T06:38:54.636Z,31.63
2022-12-09T06:41:21.963Z,30.70
2022-12-09T06:43:49.502Z,31.07
2022-12-09T06:46:18.895Z,31.67
2022-12-09T06:48:47.926Z,32.23
2022-12-09T06:51:16.344Z,31.93
2022-12-09T06:53:44.221Z,30.90
2022-12-09T06:56:13.330Z,30.60
2022-12-09T06:58:42.238Z,30.03
2022-12-09T07:01:15.771Z,30.77
2022-12-09T07:03:48.108Z,30.33
2022-12-09T07:06:28.797Z,31.47
2022-12-09T07:08:57.490Z,31.47
2022-12-09T07:11:25.718Z,31.90
2022-12-09T07:13:55.543Z,32.77
2022-12-09T07:16:24.705Z,33.27
2022-12-09T07:18:52.792Z,32.17
2022-12-09T07:21:21.470Z,32.40
2022-12-09T07:23:49.488Z,32.13
2022-12-09T07:26:17.681Z,32.10
2022-12-09T07:28:47.317Z,32.40
2022-12-09T07:31:25.483Z,32.10
2022-12-09T07:33:55.423Z,32.23
2022-12-09T07:36:26.519Z,32.17
2022-12-09T07:38:57.984Z,31.73
2022-12-09T07:41:26.089Z,32.50
2022-12-09T07:43:53.744Z,32.17
2022-12-09T07:46:22.560Z,31.37
2022-12-09T07:48:53.628Z,32.63
2022-12-09T07:51:25.972Z,31.83
2022-12-09T07:53:54.315Z,32.83
2022-12-09T07:56:23.122Z,34.43
2022-12-09T07:58:54.213Z,32.13
2022-12-09T08:01:25.999Z,31.77
2022-12-09T08:03:54.376Z,32.00
2022-12-09T08:06:24.817Z,31.70
2022-12-09T08:08:54.975Z,33.03
2022-12-09T08:11:27.534Z,32.63
2022-12-09T08:13:57.769Z,31.97
2022-12-09T08:16:25.890Z,33.50
2022-12-09T08:18:54.605Z,32.60
2022-12-09T08:21:24.304Z,32.33
2022-12-09T08:23:52.228Z,33.90
2022-12-09T08:26:23.259Z,33.67
2022-12-09T08:28:50.963Z,33.03
2022-12-09T08:31:20.985Z,38.65
2022-12-09T08:33:49.850Z,33.60
2022-12-09T08:36:23.091Z,32.30
2022-12-09T08:38:51.025Z,32.90
2022-12-09T08:41:39.140Z,32.27
2022-12-09T08:44:13.058Z,32.63
2022-12-09T08:46:41.858Z,32.90
2022-12-09T08:49:10.171Z,32.23
2022-12-09T08:51:38.161Z,33.80
2022-12-09T08:54:09.184Z,32.87
2022-12-09T08:56:36.778Z,31.70
2022-12-09T08:59:05.081Z,32.40
2022-12-09T09:01:36.060Z,33.57
2022-12-09T09:04:08.733Z,32.10
2022-12-09T09:06:38.596Z,32.93
2022-12-09T09:09:07.789Z,33.00
2022-12-09T09:11:36.390Z,32.90
2022-12-09T09:14:05.676Z,32.93
2022-12-09T09:16:34.026Z,33.30
2022-12-09T09:19:03.861Z,35.07
2022-12-09T09:21:31.887Z,33.60
2022-12-09T09:24:00.686Z,32.50
2022-12-09T09:26:28.336Z,32.60
2022-12-09T09:28:57.918Z,33.00
2022-12-09T09:31:26.296Z,34.07
2022-12-09T09:33:56.956Z,33.90
2022-12-09T09:36:25.276Z,34.70
2022-12-09T09:38:57.570Z,32.20
2022-12-09T09:41:37.906Z,35.23
2022-12-09T09:44:08.328Z,35.83
2022-12-09T09:46:43.269Z,35.53
2022-12-09T09:49:27.980Z,33.47
2022-12-09T09:51:55.794Z,32.80
2022-12-09T09:54:24.273Z,34.13
2022-12-09T09:56:57.334Z,34.20
2022-12-09T09:59:31.065Z,33.17
2022-12-09T10:01:59.321Z,33.00
2022-12-09T10:04:51.886Z,33.20
2022-12-09T10:07:23.006Z,33.33
2022-12-09T10:10:09.762Z,33.20
2022-12-09T10:13:02.891Z,33.73
2022-12-09T10:15:43.059Z,34.33
2022-12-09T10:18:25.982Z,33.80
2022-12-09T10:20:53.890Z,34.93
2022-12-09T10:23:22.547Z,36.13
2022-12-09T10:26:00.564Z,34.73
2022-12-09T10:28:35.842Z,34.37
2022-12-09T10:31:03.648Z,37.03
2022-12-09T10:33:36.219Z,34.90
2022-12-09T10:36:08.620Z,35.50
2022-12-09T10:38:44.659Z,35.80
2022-12-09T10:41:39.675Z,37.23
2022-12-09T10:44:22.456Z,36.37
2022-12-09T10:46:57.296Z,37.33
2022-12-09T10:49:25.468Z,38.33
2022-12-09T10:51:54.199Z,37.77
2022-12-09T10:54:31.791Z,39.20
2022-12-09T10:57:07.244Z,37.20
2022-12-09T10:59:35.395Z,36.87
2022-12-09T11:02:23.769Z,37.60
2022-12-09T11:04:53.617Z,37.37
2022-12-09T11:07:26.096Z,38.80
2022-12-09T11:09:56.967Z,36.73
2022-12-09T11:12:32.096Z,37.07
2022-12-09T11:15:02.921Z,35.97
2022-12-09T11:17:37.741Z,36.57
2022-12-09T11:20:12.073Z,37.27
2022-12-09T11:22:42.640Z,35.37
2022-12-09T11:25:15.756Z,35.97
2022-12-09T11:28:00.627Z,36.70
2022-12-09T11:30:31.855Z,36.70
2022-12-09T11:33:08.787Z,36.47
2022-12-09T11:35:45.883Z,36.17
2022-12-09T11:38:17.598Z,37.07
2022-12-09T11:40:57.699Z,37.57
2022-12-09T11:43:31.914Z,35.40
2022-12-09T11:45:59.589Z,37.20
2022-12-09T11:48:37.353Z,36.87
2022-12-09T11:51:08.355Z,39.73
2022-12-09T11:53:40.791Z,38.37
2022-12-09T11:56:21.030Z,38.83
2022-12-09T11:58:56.972Z,39.53
2022-12-09T12:01:28.316Z,37.67
2022-12-09T12:03:57.226Z,44.13
2022-12-09T12:06:25.848Z,39.50
2022-12-09T12:09:06.919Z,37.70
2022-12-09T12:11:39.296Z,37.13
2022-12-09T12:14:27.587Z,36.53
2022-12-09T12:17:10.067Z,35.07
2022-12-09T12:19:41.397Z,33.90
2022-12-09T12:22:30.007Z,36.63
2022-12-09T12:25:04.539Z,34.83
2022-12-09T12:27:40.663Z,35.57
2022-12-09T12:30:11.603Z,34.63
2022-12-09T12:33:11.795Z,35.90
2022-12-09T12:35:47.234Z,34.13
2022-12-09T12:38:21.561Z,35.43
2022-12-09T12:41:23.375Z,34.60
2022-12-09T12:44:19.325Z,35.27
2022-12-09T12:46:54.080Z,35.40
2022-12-09T12:49:45.365Z,36.03
2022-12-09T12:52:55.698Z,36.00
2022-12-09T12:55:30.385Z,35.53
2022-12-09T12:58:16.768Z,37.93
2022-12-09T13:00:44.950Z,38.77
2022-12-09T13:03:22.611Z,38.30
2022-12-09T13:05:51.906Z,38.73
2022-12-09T13:08:20.245Z,38.33
2022-12-09T13:10:53.297Z,38.90
2022-12-09T13:13:32.799Z,40.23
2022-12-09T13:16:07.229Z,38.60
2022-12-09T13:18:38.760Z,37.67
2022-12-09T13:21:07.547Z,40.10
2022-12-09T13:23:38.050Z,40.47
2022-12-09T13:26:24.965Z,40.27
2022-12-09T13:28:58.121Z,41.13
2022-12-09T13:31:30.154Z,43.17
2022-12-09T13:34:00.601Z,41.50
2022-12-09T13:36:40.919Z,42.33
2022-12-09T13:39:12.286Z,44.67
2022-12-09T13:41:59.544Z,44.73
2022-12-09T13:44:31.328Z,44.00
2022-12-09T13:47:25.753Z,44.43
2022-12-09T13:49:58.410Z,44.17
2022-12-09T13:52:40.304Z,44.47
2022-12-09T13:55:33.603Z,44.37
2022-12-09T13:58:06.072Z,45.30
2022-12-09T14:00:34.125Z,44.70
2022-12-09T14:03:10.137Z,46.17
2022-12-09T14:05:38.032Z,46.60
2022-12-09T14:08:15.945Z,47.40
2022-12-09T14:10:44.666Z,47.07
2022-12-09T14:13:31.781Z,47.13
2022-12-09T14:16:11.221Z,47.57
2022-12-09T14:18:40.200Z,48.43
2022-12-09T14:21:25.907Z,48.73
2022-12-09T14:24:29.298Z,47.77
2022-12-09T14:27:02.220Z,48.60
2022-12-09T14:29:45.976Z,48.53
2022-12-09T14:32:18.841Z,46.40
2022-12-09T14:34:47.435Z,46.77
2022-12-09T14:37:34.398Z,48.57
2022-12-09T14:40:16.970Z,48.93
2022-12-09T14:43:04.082Z,47.70
2022-12-09T14:45:36.247Z,48.43
2022-12-09T14:48:10.076Z,46.77
2022-12-09T14:50:43.253Z,46.40
2022-12-09T14:53:24.938Z,47.43
2022-12-09T14:55:56.117Z,45.80
2022-12-09T14:58:24.871Z,49.17
2022-12-09T15:01:06.559Z,48.23
2022-12-09T15:03:42.802Z,48.33
2022-12-09T15:06:18.810Z,49.10
2022-12-09T15:08:56.230Z,48.00
2022-12-09T15:11:35.558Z,47.53
2022-12-09T15:14:25.380Z,47.83
2022-12-09T15:16:55.308Z,46.93
2022-12-09T15:19:58.548Z,47.60
2022-12-09T15:22:21.433Z,46.93
2022-12-09T15:24:50.978Z,47.93
2022-12-09T15:27:20.776Z,47.43
2022-12-09T15:29:50.193Z,48.33
2022-12-09T15:32:24.083Z,49.33
2022-12-09T15:34:51.768Z,49.60
2022-12-09T15:37:20.867Z,49.63
2022-12-09T15:40:08.640Z,50.07
2022-12-09T15:42:39.751Z,50.00
2022-12-09T15:45:14.967Z,48.93
2022-12-09T15:47:47.459Z,50.93
2022-12-09T15:50:21.505Z,48.27
2022-12-09T15:52:53.398Z,50.50
2022-12-09T15:55:24.265Z,49.50
2022-12-09T15:57:53.388Z,48.37
2022-12-09T16:00:21.235Z,49.43
2022-12-09T16:02:49.699Z,48.43
2022-12-09T16:05:22.613Z,47.67
2022-12-09T16:07:54.156Z,49.97
2022-12-09T16:10:26.864Z,47.80
2022-12-09T16:13:07.842Z,48.43
2022-12-09T16:15:46.235Z,46.47
2022-12-09T16:18:36.960Z,47.30
2022-12-09T16:21:04.309Z,46.10
2022-12-09T16:23:32.573Z,46.70
2022-12-09T16:26:06.749Z,45.30
2022-12-09T16:28:35.410Z,44.97
2022-12-09T16:31:04.460Z,45.13
2022-12-09T16:33:37.475Z,45.23
2022-12-09T16:36:07.235Z,45.53
2022-12-09T16:38:35.699Z,46.50
2022-12-09T16:41:07.644Z,48.73
2022-12-09T16:43:35.572Z,50.53
2022-12-09T16:46:23.630Z,50.67
2022-12-09T16:48:50.985Z,51.50
2022-12-09T16:51:20.527Z,51.53
2022-12-09T16:53:49.180Z,52.67
2022-12-09T16:56:24.914Z,52.07
2022-12-09T16:58:52.619Z,52.37
2022-12-09T17:01:21.007Z,51.43
2022-12-09T17:03:54.118Z,53.70
2022-12-09T17:06:22.015Z,54.30
2022-12-09T17:08:51.780Z,54.03
2022-12-09T17:11:21.547Z,56.10
2022-12-09T17:13:51.318Z,58.53
2022-12-09T17:16:22.283Z,60.97
2022-12-09T17:18:50.169Z,60.53
2022-12-09T17:21:17.782Z,63.07
2022-12-09T17:23:45.650Z,63.30
2022-12-09T17:26:14.369Z,63.20
2022-12-09T17:28:43.271Z,61.37
2022-12-09T17:31:11.521Z,60.97
2022-12-09T17:33:39.125Z,59.27
2022-12-09T17:36:07.453Z,60.77
2022-12-09T17:38:35.529Z,59.77
2022-12-09T17:41:07.541Z,59.00
2022-12-09T17:43:34.908Z,60.17
2022-12-09T17:46:03.049Z,59.23
2022-12-09T17:48:30.972Z,58.87
2022-12-09T17:50:58.240Z,60.00
2022-12-09T17:53:25.770Z,60.47
2022-12-09T17:55:53.128Z,59.87
2022-12-09T17:58:20.414Z,57.60
2022-12-09T18:00:48.009Z,58.33
2022-12-09T18:03:27.423Z,58.30
2022-12-09T18:06:02.808Z,57.27
2022-12-09T18:08:30.321Z,57.93
2022-12-09T18:10:57.671Z,57.07
2022-12-09T18:13:25.101Z,56.87
2022-12-09T18:15:54.513Z,55.97
2022-12-09T18:18:22.071Z,55.07
2022-12-09T18:20:49.569Z,56.37
2022-12-09T18:23:18.463Z,56.00
2022-12-09T18:25:45.848Z,57.13
2022-12-09T18:28:13.276Z,56.93
2022-12-09T18:30:40.659Z,56.57
2022-12-09T18:33:08.063Z,55.90
2022-12-09T18:35:40.441Z,69.05
2022-12-09T18:38:12.649Z,60.03
2022-12-09T18:41:03.195Z,58.63
2022-12-09T18:43:35.354Z,57.93
2022-12-09T18:46:03.523Z,57.93
2022-12-09T18:48:31.392Z,55.23
2022-12-09T18:50:59.312Z,54.00
2022-12-09T18:53:28.733Z,55.07
2022-12-09T18:55:57.346Z,54.33
2022-12-09T18:58:42.794Z,53.03
2022-12-09T19:01:17.942Z,53.77
2022-12-09T19:03:45.924Z,52.07
2022-12-09T19:06:23.975Z,51.17
2022-12-09T19:08:53.819Z,53.17
2022-12-09T19:11:26.592Z,54.27
2022-12-09T19:13:54.396Z,52.83
2022-12-09T19:16:22.663Z,52.27
2022-12-09T19:18:50.770Z,53.70
2022-12-09T19:21:19.435Z,55.30
2022-12-09T19:23:47.014Z,54.67
2022-12-09T19:26:18.223Z,56.97
2022-12-09T19:28:46.580Z,55.33
2022-12-09T19:31:25.624Z,56.30
2022-12-09T19:33:56.908Z,56.63
2022-12-09T19:36:25.040Z,57.50
2022-12-09T19:38:52.780Z,54.40
2022-12-09T19:41:21.020Z,56.07
2022-12-09T19:43:48.537Z,54.67
2022-12-09T19:46:16.717Z,55.73
2022-12-09T19:48:44.760Z,56.97
2022-12-09T19:51:13.854Z,55.37
2022-12-09T19:53:41.512Z,54.93
2022-12-09T19:56:11.511Z,55.40
2022-12-09T19:58:39.633Z,54.90
2022-12-09T20:01:10.389Z,54.73
2022-12-09T20:03:38.713Z,54.23
2022-12-09T20:06:07.653Z,55.30
2022-12-09T20:08:35.374Z,55.73
2022-12-09T20:11:03.673Z,56.33
2022-12-09T20:13:34.880Z,56.93
2022-12-09T20:16:06.510Z,54.90
2022-12-09T20:18:33.931Z,55.03
2022-12-09T20:21:02.088Z,55.80
2022-12-09T20:23:29.733Z,54.77
2022-12-09T20:26:03.954Z,55.70
2022-12-09T20:28:31.951Z,56.00
2022-12-09T20:31:06.868Z,55.03
2022-12-09T20:33:35.083Z,54.13
2022-12-09T20:36:09.674Z,54.17
2022-12-09T20:38:37.341Z,55.60
2022-12-09T20:41:12.110Z,57.13
2022-12-09T20:43:40.191Z,55.97
2022-12-09T20:46:15.415Z,55.13
2022-12-09T20:48:43.281Z,55.03
2022-12-09T20:51:21.408Z,56.63
2022-12-09T20:53:52.755Z,55.23
2022-12-09T20:56:21.117Z,57.80
2022-12-09T20:58:49.227Z,57.70
2022-12-09T21:01:20.662Z,57.03
2022-12-09T21:03:48.506Z,57.57
2022-12-09T21:06:17.561Z,56.20
2022-12-09T21:08:45.519Z,56.73
2022-12-09T21:11:15.009Z,57.03
2022-12-09T21:13:44.125Z,56.93
2022-12-09T21:16:13.705Z,56.83
2022-12-09T21:18:41.256Z,58.10
2022-12-09T21:21:08.670Z,58.33
2022-12-09T21:23:39.244Z,58.87
2022-12-09T21:26:08.189Z,58.03
2022-12-09T21:28:36.202Z,58.50
2022-12-09T21:31:19.852Z,58.80
2022-12-09T21:33:48.247Z,58.63
2022-12-09T21:36:16.855Z,59.17
2022-12-09T21:38:44.530Z,58.37
2022-12-09T21:41:16.158Z,58.83
2022-12-09T21:43:43.979Z,61.03
2022-12-09T21:46:15.893Z,59.27
2022-12-09T21:48:43.318Z,57.50
2022-12-09T21:51:11.629Z,59.03
2022-12-09T21:53:39.261Z,58.83
2022-12-09T21:56:08.560Z,59.60
2022-12-09T21:58:36.184Z,59.27
2022-12-09T22:01:10.947Z,59.27
2022-12-09T22:03:38.773Z,60.80
2022-12-09T22:06:06.959Z,59.30
2022-12-09T22:08:34.828Z,57.77
2022-12-09T22:11:02.324Z,57.83
2022-12-09T22:13:29.649Z,59.50
2022-12-09T22:15:56.965Z,59.50
2022-12-09T22:18:25.389Z,59.10
2022-12-09T22:21:23.522Z,61.03
2022-12-09T22:23:40.365Z,60.07
2022-12-09T22:26:11.649Z,59.53
2022-12-09T22:28:39.288Z,58.83
2022-12-09T22:31:14.340Z,59.77
2022-12-09T22:33:41.888Z,58.53
2022-12-09T22:36:10.347Z,58.83
2022-12-09T22:38:38.590Z,60.97
2022-12-09T22:41:15.386Z,59.57
2022-12-09T22:43:43.457Z,58.17
2022-12-09T22:46:13.196Z,59.40
2022-12-09T22:48:41.260Z,58.77
2022-12-09T22:51:10.951Z,57.37
2022-12-09T22:53:38.391Z,58.27
2022-12-09T22:56:06.177Z,57.67
2022-12-09T22:58:35.267Z,58.10
2022-12-09T23:01:05.437Z,57.97
2022-12-09T23:03:35.072Z,58.27
2022-12-09T23:06:03.990Z,58.57
2022-12-09T23:08:38.546Z,58.73
2022-12-09T23:11:08.157Z,58.37
2022-12-09T23:13:40.680Z,57.83
2022-12-09T23:16:09.214Z,57.70
2022-12-09T23:18:36.905Z,58.10
2022-12-09T23:21:08.633Z,59.33
2022-12-09T23:23:36.027Z,58.27
2022-12-09T23:26:05.019Z,58.30
2022-12-09T23:28:33.002Z,59.27
2022-12-09T23:31:32.303Z,58.10
2022-12-09T23:34:00.102Z,58.03
2022-12-09T23:36:33.290Z,59.70
2022-12-09T23:39:01.233Z,58.57
2022-12-09T23:41:28.812Z,59.03
2022-12-09T23:43:57.831Z,58.30
2022-12-09T23:46:26.614Z,59.33
2022-12-09T23:48:54.131Z,58.33
2022-12-09T23:51:22.652Z,60.97
2022-12-09T23:53:50.814Z,59.13
2022-12-09T23:56:20.206Z,61.10
2022-12-09T23:58:48.806Z,58.43
